Impacts METAR Board
IDs:

KDFW - Dallas-Ft Worth Intl, TX, US

Updated at: 1200 UTC 16 Sep 2019
Potential Impact None Slight Moderate High
Time 16/00Z 16/01Z 16/02Z 16/03Z 16/04Z 16/05Z 16/06Z 16/07Z 16/08Z 16/09Z 16/10Z 16/11Z 16/12Z
Temp92 90 88 86 86 85 83 82 81 80 79 79 78
Dewpt60 64 65 65 65 65 66 67 67 67 67 66 67
Altim29.98 29.98 29.99 30.01 30.01 30.02 30.02 30.03 30.02 30.02 30.02 30.02 30.03
VIS10 10 10 10 10 10 10 10 10 10 10 10 10
CIG-- -- -- -- -- -- -- -- -- -- -- -- --
CoverFEWFEWFEWCLRCLRCLRCLRCLRCLRCLRCLRCLRCLR
FltCatVFRVFRVFRVFRVFRVFRVFRVFRVFRVFRVFRVFRVFR
WX--------------------------
WDir9010010011010090100120900000
WSpd6 7 6 5 4 3 4 3 4 0 0 0 0
WGst-- -- -- -- -- -- -- -- -- -- -- -- --
Raw hourly METARs
KDFW 152353Z 09006KT 10SM FEW080 33/16 A2998 RMK AO2 SLP143 T03330156 10367 20333 55003
KDFW 160053Z 10007KT 10SM FEW080 FEW300 32/18 A2998 RMK AO2 SLP143 T03220178
KDFW 160153Z 10006KT 10SM FEW300 31/18 A2999 RMK AO2 SLP147 T03110183
KDFW 160253Z 11005KT 10SM CLR 30/18 A3001 RMK AO2 SLP151 T03000183 53007
KDFW 160353Z 10004KT 10SM CLR 30/18 A3001 RMK AO2 SLP153 T03000183
KDFW 160453Z 09003KT 10SM CLR 29/18 A3002 RMK AO2 SLP155 T02940183
KDFW 160553Z 10004KT 10SM CLR 28/19 A3002 RMK AO2 SLP156 T02830189 10333 20283 403670244 51006
KDFW 160653Z 12003KT 10SM CLR 28/19 A3003 RMK AO2 SLP157 T02780194
KDFW 160753Z 09004KT 10SM CLR 27/19 A3002 RMK AO2 SLP156 T02720194
KDFW 160853Z 00000KT 10SM CLR 27/19 A3002 RMK AO2 SLP155 T02670194 58001
KDFW 160953Z 00000KT 10SM CLR 26/19 A3002 RMK AO2 SLP154 T02610194
KDFW 161053Z 00000KT 10SM CLR 26/19 A3002 RMK AO2 SLP155 T02610189
KDFW 161153Z 00000KT 10SM CLR 26/19 A3003 RMK AO2 SLP159 T02560194 10283 20256 53002



Page loaded:  12:20 UTC  |   05:20 AM Pacific  |   06:20 AM Mountain  |   07:20 AM Central  |   08:20 AM Eastern

 

ADVISORIES

FORECASTS

FORECASTS

OBSERVATIONS

USER TOOLS

ABOUT US